Time;durP1;ratioP1;P1;durP2;ratioP2;P2;SDS_P1;SDS_P2;PMS_P1;PMS_P2;Temp;Humidity;BMP_temperature;BMP_pressure;BME280_temperature;BME280_humidity;BME280_pressure;Samples;Min_cycle;Max_cycle;Signal;HPM_P1;HPM_P2
2023/04/28 00:02:17;;;;;;;21.03;12.57;;;19.30;42.20;;;;;;4954003;29;20525;-81
2023/04/28 00:04:46;;;;;;;19.73;11.87;;;19.30;42.20;;;;;;4950856;29;20467;-81
2023/04/28 00:07:16;;;;;;;20.50;12.83;;;19.30;42.20;;;;;;4953387;29;21039;-79
2023/04/28 00:09:43;;;;;;;16.67;11.93;;;19.30;42.20;;;;;;4937505;29;20463;-79
2023/04/28 00:12:12;;;;;;;17.77;11.50;;;19.20;42.30;;;;;;4937569;29;20456;-80
2023/04/28 00:14:40;;;;;;;17.93;12.20;;;19.20;42.40;;;;;;4939837;29;20440;-80
2023/04/28 00:17:09;;;;;;;21.03;12.27;;;19.20;42.40;;;;;;4953076;28;20494;-79
2023/04/28 00:19:37;;;;;;;16.07;11.30;;;19.20;42.40;;;;;;4960475;29;20443;-79
2023/04/28 00:22:05;;;;;;;19.03;11.50;;;19.20;42.40;;;;;;4948431;29;20475;-79
2023/04/28 00:24:35;;;;;;;14.87;10.93;;;19.20;42.40;;;;;;4937480;29;20483;-79
2023/04/28 00:27:03;;;;;;;17.47;10.87;;;19.20;42.50;;;;;;4944277;29;20454;-80
2023/04/28 00:29:31;;;;;;;16.43;10.30;;;19.10;42.50;;;;;;4937464;29;20455;-80
2023/04/28 00:31:59;;;;;;;16.33;10.90;;;19.10;42.60;;;;;;4937887;29;20474;-80
2023/04/28 00:34:28;;;;;;;12.77;9.70;;;19.10;42.60;;;;;;4946483;28;20461;-77
2023/04/28 00:36:57;;;;;;;20.10;10.40;;;19.10;42.70;;;;;;4945548;28;20444;-77
2023/04/28 00:39:26;;;;;;;12.40;9.70;;;19.00;42.60;;;;;;4945137;29;20934;-79
2023/04/28 00:41:56;;;;;;;15.53;9.97;;;19.00;42.60;;;;;;4937975;29;20926;-79
2023/04/28 00:44:24;;;;;;;15.17;10.30;;;19.00;42.70;;;;;;4945518;29;20452;-79
2023/04/28 00:46:52;;;;;;;13.13;9.33;;;18.90;42.80;;;;;;4937987;29;20455;-79
2023/04/28 00:49:21;;;;;;;14.30;9.33;;;18.90;42.70;;;;;;4939658;29;20460;-79
2023/04/28 00:51:49;;;;;;;12.50;9.40;;;18.90;42.80;;;;;;4954890;28;20490;-79
2023/04/28 00:54:17;;;;;;;13.00;9.50;;;18.90;42.80;;;;;;4956018;29;20533;-79
2023/04/28 00:56:45;;;;;;;13.90;9.37;;;18.80;42.80;;;;;;4954997;29;20466;-77
2023/04/28 00:59:15;;;;;;;12.27;8.70;;;18.90;42.90;;;;;;4938358;28;20454;-80
2023/04/28 01:01:42;;;;;;;11.30;7.87;;;18.80;42.90;;;;;;4941648;29;20485;-79
2023/04/28 01:04:11;;;;;;;10.77;8.20;;;18.80;42.80;;;;;;4951905;28;20479;-79
2023/04/28 01:06:39;;;;;;;12.20;8.60;;;18.80;43.00;;;;;;4948282;29;20458;-79
2023/04/28 01:09:07;;;;;;;9.23;7.33;;;18.80;43.10;;;;;;4947161;29;20466;-79
2023/04/28 01:11:36;;;;;;;13.10;8.30;;;18.70;42.90;;;;;;4944001;29;20970;-80
2023/04/28 01:14:04;;;;;;;12.53;7.63;;;18.70;43.10;;;;;;4936306;29;20459;-79
2023/04/28 01:16:34;;;;;;;9.40;7.93;;;18.70;42.90;;;;;;4939641;29;20948;-80
2023/04/28 01:19:02;;;;;;;12.93;7.97;;;18.70;43.00;;;;;;4939437;29;20459;-80
2023/04/28 01:21:31;;;;;;;10.20;7.27;;;18.60;43.10;;;;;;4936727;29;20476;-79
2023/04/28 01:24:01;;;;;;;10.53;7.43;;;18.60;43.00;;;;;;4943490;29;20483;-79
2023/04/28 01:26:29;;;;;;;9.70;6.40;;;18.60;43.10;;;;;;4943685;29;20463;-78
2023/04/28 01:28:59;;;;;;;10.40;6.93;;;18.60;43.20;;;;;;4939539;29;20476;-79
2023/04/28 01:31:26;;;;;;;8.67;6.30;;;18.60;43.30;;;;;;4935904;29;20467;-79
2023/04/28 01:33:55;;;;;;;10.10;6.50;;;18.60;43.30;;;;;;4942539;29;20486;-80
2023/04/28 01:36:23;;;;;;;8.40;6.40;;;18.60;43.20;;;;;;4935978;29;20452;-79
2023/04/28 01:38:51;;;;;;;12.90;6.30;;;18.60;43.30;;;;;;4942070;29;20459;-79
2023/04/28 01:41:21;;;;;;;8.80;6.10;;;18.50;43.20;;;;;;4956127;28;20482;-79
2023/04/28 01:43:49;;;;;;;9.37;6.43;;;18.50;43.30;;;;;;4959142;29;20451;-79
2023/04/28 01:46:17;;;;;;;8.03;6.73;;;18.50;43.20;;;;;;4951005;29;20443;-79
2023/04/28 01:48:46;;;;;;;8.90;6.67;;;18.40;43.30;;;;;;4942041;29;20471;-79
2023/04/28 01:51:14;;;;;;;6.80;6.10;;;18.50;43.30;;;;;;4948256;29;20474;-80
2023/04/28 01:53:42;;;;;;;7.33;5.97;;;18.40;43.30;;;;;;4941418;29;20475;-79
2023/04/28 01:56:10;;;;;;;6.20;5.50;;;18.40;43.40;;;;;;4941489;29;20448;-79
2023/04/28 01:58:40;;;;;;;6.50;5.60;;;18.40;43.60;;;;;;4960329;29;20458;-79
2023/04/28 02:01:08;;;;;;;6.53;5.50;;;18.40;43.50;;;;;;4958706;29;20479;-80
2023/04/28 02:03:36;;;;;;;8.30;6.27;;;18.40;43.50;;;;;;4957260;29;20448;-80
2023/04/28 02:06:05;;;;;;;8.63;5.40;;;18.30;43.40;;;;;;4941983;29;20490;-80
2023/04/28 02:08:33;;;;;;;7.73;5.03;;;18.30;43.50;;;;;;4944015;29;20454;-80
2023/04/28 02:11:02;;;;;;;6.27;5.30;;;18.30;43.50;;;;;;4942061;29;20478;-80
2023/04/28 02:13:30;;;;;;;9.30;4.80;;;18.30;43.30;;;;;;4948401;29;20566;-80
2023/04/28 02:16:01;;;;;;;8.17;4.97;;;18.30;43.50;;;;;;4959644;29;20481;-80
2023/04/28 02:18:30;;;;;;;5.73;4.47;;;18.30;43.60;;;;;;4949354;29;20451;-79
2023/04/28 02:20:58;;;;;;;5.23;4.73;;;18.20;43.60;;;;;;4948592;28;20471;-80
2023/04/28 02:23:26;;;;;;;4.93;4.40;;;18.20;43.60;;;;;;4949452;28;20447;-80
2023/04/28 02:26:00;;;;;;;6.07;5.10;;;18.20;43.60;;;;;;4949835;29;20444;-80
2023/04/28 02:28:28;;;;;;;6.87;4.80;;;18.20;43.60;;;;;;4943396;29;20439;-80
2023/04/28 02:31:05;;;;;;;4.67;4.27;;;18.20;43.80;;;;;;4945688;29;20467;-79
2023/04/28 02:33:33;;;;;;;4.50;4.10;;;18.20;43.70;;;;;;4952502;29;21000;-79
2023/04/28 02:36:00;;;;;;;5.00;4.50;;;18.20;43.70;;;;;;4948043;29;20445;-79
2023/04/28 02:38:28;;;;;;;5.20;4.70;;;18.10;43.50;;;;;;4948520;29;20440;-80
2023/04/28 02:41:00;;;;;;;6.17;4.27;;;18.10;43.80;;;;;;4942156;29;20508;-80
2023/04/28 02:43:28;;;;;;;7.00;4.70;;;18.10;43.70;;;;;;4939984;29;20452;-79
2023/04/28 02:45:56;;;;;;;5.33;4.83;;;18.10;43.90;;;;;;4953176;29;20455;-78
2023/04/28 02:48:25;;;;;;;4.90;4.27;;;18.10;44.00;;;;;;4948655;28;20546;-79
2023/04/28 02:50:54;;;;;;;5.53;4.47;;;18.10;43.80;;;;;;4956753;29;20470;-79
2023/04/28 02:53:22;;;;;;;4.87;4.37;;;18.10;43.90;;;;;;4954823;28;20451;-79
2023/04/28 02:55:50;;;;;;;5.33;4.50;;;18.00;43.80;;;;;;4950239;29;20443;-80
2023/04/28 02:58:17;;;;;;;4.47;4.10;;;18.00;43.90;;;;;;4947809;29;20446;-80
2023/04/28 03:00:46;;;;;;;5.07;4.57;;;18.00;43.90;;;;;;4953442;28;20471;-79
2023/04/28 03:03:14;;;;;;;4.90;4.37;;;18.00;43.80;;;;;;4936710;29;20452;-79
2023/04/28 03:05:44;;;;;;;5.43;4.10;;;18.00;43.90;;;;;;4947293;29;20459;-78
2023/04/28 03:08:11;;;;;;;4.60;4.20;;;17.90;43.80;;;;;;4947475;29;20463;-79
2023/04/28 03:10:40;;;;;;;5.07;3.80;;;17.90;43.80;;;;;;4936751;29;20468;-78
2023/04/28 03:13:08;;;;;;;4.30;3.90;;;17.90;43.80;;;;;;4942916;29;20447;-79
2023/04/28 03:15:36;;;;;;;5.80;3.97;;;17.90;43.80;;;;;;4936675;29;21019;-81
2023/04/28 03:18:04;;;;;;;4.23;3.83;;;17.90;44.10;;;;;;4936901;29;20456;-79
2023/04/28 03:20:32;;;;;;;3.90;3.60;;;17.80;44.00;;;;;;4938372;29;20475;-79
2023/04/28 03:23:02;;;;;;;4.67;4.10;;;17.80;44.10;;;;;;4950173;29;20969;-79
2023/04/28 03:25:30;;;;;;;5.10;4.10;;;17.90;44.10;;;;;;4949179;29;20475;-80
2023/04/28 03:27:58;;;;;;;3.57;3.27;;;17.90;43.90;;;;;;4938891;29;20459;-79
2023/04/28 03:30:26;;;;;;;4.00;3.70;;;17.80;44.00;;;;;;4940460;29;20458;-79
2023/04/28 03:32:54;;;;;;;4.83;4.00;;;17.90;44.00;;;;;;4958090;29;20458;-79
2023/04/28 03:35:22;;;;;;;4.13;3.83;;;17.80;44.00;;;;;;4956376;29;20671;-80
2023/04/28 03:37:51;;;;;;;6.00;4.10;;;17.80;44.00;;;;;;4952515;28;20452;-80
2023/04/28 03:40:20;;;;;;;6.03;4.27;;;17.80;43.90;;;;;;4954448;29;20463;-79
2023/04/28 03:42:48;;;;;;;5.43;4.10;;;17.80;44.00;;;;;;4956402;29;20549;-78
2023/04/28 03:45:17;;;;;;;3.77;3.50;;;17.80;44.20;;;;;;4957037;29;20962;-79
2023/04/28 03:47:45;;;;;;;3.87;3.57;;;17.80;44.00;;;;;;4958121;29;20474;-79
2023/04/28 03:50:13;;;;;;;3.83;3.47;;;17.70;44.00;;;;;;4947719;29;20516;-81
2023/04/28 03:52:41;;;;;;;3.80;3.33;;;17.70;44.10;;;;;;4941482;29;20447;-78
2023/04/28 03:55:10;;;;;;;4.13;3.77;;;17.70;44.10;;;;;;4947815;28;20480;-80
2023/04/28 03:57:39;;;;;;;3.70;3.40;;;17.70;44.20;;;;;;4942946;29;20452;-79
2023/04/28 04:00:08;;;;;;;3.70;3.30;;;17.70;44.10;;;;;;4938198;29;20448;-79
2023/04/28 04:02:37;;;;;;;4.57;3.90;;;17.70;44.20;;;;;;4956486;29;20443;-79
2023/04/28 04:05:06;;;;;;;4.40;3.37;;;17.70;44.30;;;;;;4948715;28;20471;-80
2023/04/28 04:07:34;;;;;;;3.63;3.00;;;17.70;44.20;;;;;;4937570;29;20452;-79
2023/04/28 04:10:02;;;;;;;3.43;3.17;;;17.70;44.30;;;;;;4952138;29;20442;-79
2023/04/28 04:12:31;;;;;;;3.70;3.40;;;17.70;44.20;;;;;;4949667;29;20490;-77
2023/04/28 04:15:01;;;;;;;4.67;3.73;;;17.70;44.20;;;;;;4946236;29;20476;-78
2023/04/28 04:17:29;;;;;;;4.33;3.73;;;17.70;44.90;;;;;;4935939;29;20450;-79
2023/04/28 04:19:57;;;;;;;4.00;3.40;;;17.60;44.20;;;;;;4940225;29;20451;-79
2023/04/28 04:22:24;;;;;;;3.70;3.40;;;17.70;44.20;;;;;;4937651;29;20472;-81
2023/04/28 04:24:52;;;;;;;3.63;3.33;;;17.70;44.20;;;;;;4943538;29;20529;-79
2023/04/28 04:27:20;;;;;;;3.77;3.43;;;17.70;44.20;;;;;;4942540;29;20455;-79
2023/04/28 04:29:49;;;;;;;4.13;3.00;;;17.70;44.20;;;;;;4937653;28;20467;-80
2023/04/28 04:32:18;;;;;;;3.83;3.53;;;17.60;44.20;;;;;;4938498;29;20472;-80
2023/04/28 04:34:46;;;;;;;3.73;3.43;;;17.60;44.10;;;;;;4935724;29;20487;-79
2023/04/28 04:37:14;;;;;;;3.70;3.50;;;17.60;44.30;;;;;;4949574;29;20451;-79
2023/04/28 04:39:42;;;;;;;3.30;3.00;;;17.60;44.20;;;;;;4934952;29;20452;-79
2023/04/28 04:42:10;;;;;;;3.50;3.30;;;17.70;44.30;;;;;;4934660;29;20480;-79
2023/04/28 04:44:52;;;;;;;3.60;3.30;;;17.60;44.10;;;;;;4940198;29;20441;-79
2023/04/28 04:47:22;;;;;;;3.13;2.87;;;17.60;44.20;;;;;;4941396;28;20459;-79
2023/04/28 04:49:51;;;;;;;5.37;3.73;;;17.60;44.20;;;;;;4947478;29;20451;-79
2023/04/28 04:52:18;;;;;;;3.07;2.87;;;17.70;44.30;;;;;;4939411;28;20460;-80
2023/04/28 04:54:46;;;;;;;3.60;3.30;;;17.70;44.20;;;;;;4935335;29;20477;-81
2023/04/28 04:57:15;;;;;;;3.03;2.83;;;17.70;44.20;;;;;;4942533;29;20448;-79
2023/04/28 04:59:43;;;;;;;3.50;3.30;;;17.70;44.30;;;;;;4944362;29;20448;-79
2023/04/28 05:02:10;;;;;;;3.17;2.87;;;17.70;44.20;;;;;;4942881;29;20576;-80
2023/04/28 05:04:40;;;;;;;3.27;2.97;;;17.70;44.20;;;;;;4941159;29;20482;-81
2023/04/28 05:07:08;;;;;;;3.00;2.80;;;17.70;44.20;;;;;;4936360;29;20452;-80
2023/04/28 05:09:36;;;;;;;3.30;3.00;;;17.80;44.20;;;;;;4938961;29;20438;-79
2023/04/28 05:12:05;;;;;;;3.20;3.00;;;17.80;44.20;;;;;;4946391;29;20451;-78
2023/04/28 05:14:33;;;;;;;3.23;2.83;;;17.80;44.10;;;;;;4947339;29;20434;-80
2023/04/28 05:17:01;;;;;;;6.03;3.20;;;17.80;44.00;;;;;;4953059;28;20447;-80
2023/04/28 05:19:29;;;;;;;3.20;3.00;;;17.80;44.00;;;;;;4953280;29;20443;-80
2023/04/28 05:21:59;;;;;;;4.47;3.47;;;17.80;44.20;;;;;;4952468;29;20995;-80
2023/04/28 05:24:27;;;;;;;3.10;2.90;;;17.80;44.00;;;;;;4955236;29;20440;-80
2023/04/28 05:26:57;;;;;;;6.10;3.10;;;17.80;44.00;;;;;;4939213;29;20443;-80
2023/04/28 05:29:25;;;;;;;4.30;2.53;;;17.80;44.00;;;;;;4936246;29;20463;-80
2023/04/28 05:31:53;;;;;;;3.00;2.80;;;17.90;44.10;;;;;;4943076;29;20471;-80
2023/04/28 05:34:21;;;;;;;3.03;2.70;;;17.90;44.10;;;;;;4943811;29;20455;-79
2023/04/28 05:36:48;;;;;;;2.73;2.63;;;17.90;44.00;;;;;;4936428;29;20479;-81
2023/04/28 05:39:17;;;;;;;3.07;2.83;;;17.90;44.00;;;;;;4949554;29;20466;-80
2023/04/28 05:41:45;;;;;;;3.40;3.10;;;17.90;44.00;;;;;;4946662;29;20471;-80
2023/04/28 05:44:13;;;;;;;5.63;2.80;;;17.90;44.00;;;;;;4954588;29;20490;-80
2023/04/28 05:46:41;;;;;;;3.03;2.73;;;17.90;44.00;;;;;;4936355;29;20510;-79
2023/04/28 05:49:09;;;;;;;3.50;2.40;;;17.90;44.00;;;;;;4936163;29;20455;-80
2023/04/28 05:51:37;;;;;;;2.67;2.57;;;18.00;44.00;;;;;;4942651;29;20481;-80
2023/04/28 05:54:05;;;;;;;4.17;2.90;;;18.00;44.00;;;;;;4942578;29;20561;-79
2023/04/28 05:56:35;;;;;;;2.80;2.60;;;18.00;44.00;;;;;;4949418;28;20483;-80
2023/04/28 05:59:03;;;;;;;3.93;2.90;;;18.10;44.00;;;;;;4947508;29;20455;-80
2023/04/28 06:01:32;;;;;;;3.00;2.63;;;18.00;44.00;;;;;;4953350;28;20471;-78
2023/04/28 06:04:00;;;;;;;4.50;2.90;;;18.10;44.10;;;;;;4949072;29;20461;-80
2023/04/28 06:06:28;;;;;;;3.10;2.83;;;18.10;43.90;;;;;;4945449;29;20451;-79
2023/04/28 06:08:56;;;;;;;3.30;3.10;;;18.10;43.90;;;;;;4936398;29;20539;-80
2023/04/28 06:11:24;;;;;;;3.20;3.00;;;18.20;43.90;;;;;;4938269;29;20486;-80
2023/04/28 06:13:54;;;;;;;2.80;2.70;;;18.20;43.80;;;;;;4946529;29;20462;-79
2023/04/28 06:16:22;;;;;;;3.10;2.73;;;18.20;43.90;;;;;;4954175;29;20529;-78
2023/04/28 06:18:50;;;;;;;3.00;2.63;;;18.20;43.90;;;;;;4949612;29;20520;-80
2023/04/28 06:21:20;;;;;;;3.03;2.83;;;18.20;44.10;;;;;;4935206;29;20472;-79
2023/04/28 06:23:48;;;;;;;4.30;3.27;;;18.20;43.80;;;;;;4942869;29;20448;-80
2023/04/28 06:26:16;;;;;;;2.70;2.53;;;18.20;43.90;;;;;;4940534;29;20440;-81
2023/04/28 06:28:45;;;;;;;2.77;2.67;;;18.20;44.10;;;;;;4947425;28;20734;-79
2023/04/28 06:31:15;;;;;;;3.03;2.83;;;18.30;44.50;;;;;;4958814;29;20570;-79
2023/04/28 06:33:43;;;;;;;2.70;2.50;;;18.30;43.90;;;;;;4958732;28;20442;-79
2023/04/28 06:36:12;;;;;;;2.70;2.60;;;18.30;43.70;;;;;;4951673;29;21058;-80
2023/04/28 06:38:41;;;;;;;3.23;3.03;;;18.30;43.70;;;;;;4940929;29;20448;-80
2023/04/28 06:41:09;;;;;;;2.77;2.57;;;18.40;43.70;;;;;;4939109;29;20467;-79
2023/04/28 06:43:38;;;;;;;2.80;2.60;;;18.40;43.80;;;;;;4938906;29;20519;-80
2023/04/28 06:46:06;;;;;;;2.63;2.53;;;18.40;43.70;;;;;;4951171;29;20455;-80
2023/04/28 06:48:35;;;;;;;2.90;2.60;;;18.40;43.60;;;;;;4949684;29;20451;-79
2023/04/28 06:51:04;;;;;;;3.23;2.80;;;18.50;43.80;;;;;;4943302;29;20466;-80
2023/04/28 06:53:32;;;;;;;4.93;2.97;;;18.50;43.60;;;;;;4957527;29;20457;-79
2023/04/28 06:56:01;;;;;;;3.33;2.83;;;18.50;43.70;;;;;;4952153;29;20479;-78
2023/04/28 06:58:29;;;;;;;3.07;2.77;;;18.50;43.70;;;;;;4940581;29;20455;-79
2023/04/28 07:00:57;;;;;;;2.90;2.60;;;18.60;43.70;;;;;;4945392;29;20477;-79
2023/04/28 07:03:26;;;;;;;2.60;2.40;;;18.60;43.60;;;;;;4944201;29;20459;-80
2023/04/28 07:05:56;;;;;;;3.03;2.83;;;18.60;43.50;;;;;;4949973;29;20451;-80
2023/04/28 07:08:24;;;;;;;3.37;3.07;;;18.70;43.60;;;;;;4949752;28;20462;-80
2023/04/28 07:10:53;;;;;;;2.60;2.50;;;18.70;43.50;;;;;;4942076;29;20466;-80
2023/04/28 07:13:21;;;;;;;3.30;3.00;;;18.80;43.50;;;;;;4943525;29;20443;-78
2023/04/28 07:15:49;;;;;;;2.53;2.43;;;18.90;43.40;;;;;;4943355;29;20468;-79
2023/04/28 07:18:17;;;;;;;2.40;2.20;;;18.90;43.40;;;;;;4954010;29;20459;-81
2023/04/28 07:20:45;;;;;;;3.20;2.77;;;18.90;43.40;;;;;;4946752;29;20478;-80
2023/04/28 07:23:14;;;;;;;3.83;2.93;;;18.90;43.40;;;;;;4949367;28;20446;-80
2023/04/28 07:25:42;;;;;;;3.00;2.87;;;19.00;43.40;;;;;;4947419;29;20450;-79
2023/04/28 07:28:11;;;;;;;3.00;2.80;;;19.10;43.40;;;;;;4945061;28;20452;-78
2023/04/28 07:30:39;;;;;;;2.70;2.50;;;19.10;43.20;;;;;;4943998;29;20476;-80
2023/04/28 07:33:07;;;;;;;2.73;2.53;;;19.20;43.30;;;;;;4952299;29;20451;-80
2023/04/28 07:35:36;;;;;;;2.20;2.10;;;19.20;43.10;;;;;;4955449;29;20538;-79
2023/04/28 07:38:04;;;;;;;2.93;2.73;;;19.30;43.20;;;;;;4949804;29;20466;-80
2023/04/28 07:40:34;;;;;;;2.60;2.50;;;19.30;43.30;;;;;;4958561;29;20447;-80
2023/04/28 07:43:02;;;;;;;3.93;2.93;;;19.30;43.20;;;;;;4959450;29;20483;-81
2023/04/28 07:45:30;;;;;;;3.17;2.87;;;19.30;43.10;;;;;;4955974;29;20447;-80
2023/04/28 07:47:59;;;;;;;2.90;2.70;;;19.40;43.20;;;;;;4953016;29;20494;-82
2023/04/28 07:50:27;;;;;;;2.90;2.70;;;19.40;43.00;;;;;;4958240;29;20462;-79
2023/04/28 07:52:56;;;;;;;3.00;2.60;;;19.50;43.20;;;;;;4959268;28;20518;-82
2023/04/28 07:55:25;;;;;;;3.00;2.80;;;19.50;43.10;;;;;;4954766;29;20459;-80
2023/04/28 07:57:55;;;;;;;3.00;2.80;;;19.50;43.00;;;;;;4943454;29;20477;-80
2023/04/28 08:00:24;;;;;;;2.97;2.77;;;19.50;43.00;;;;;;4950560;29;20534;-79
2023/04/28 08:02:52;;;;;;;3.00;2.80;;;19.50;42.80;;;;;;4941300;29;20538;-78
2023/04/28 08:05:20;;;;;;;3.27;2.97;;;19.60;42.90;;;;;;4944388;29;20455;-79
2023/04/28 08:07:49;;;;;;;3.40;3.20;;;19.60;42.80;;;;;;4943568;29;20471;-77
2023/04/28 08:10:17;;;;;;;3.47;3.17;;;19.60;42.80;;;;;;4943953;28;20464;-80
2023/04/28 08:12:45;;;;;;;5.67;4.43;;;19.60;42.70;;;;;;4952014;29;20498;-81
2023/04/28 08:15:14;;;;;;;7.20;4.70;;;19.70;42.80;;;;;;4939594;29;20527;-79
2023/04/28 08:17:45;;;;;;;6.80;5.47;;;19.80;42.70;;;;;;4954049;29;20908;-78
2023/04/28 08:20:18;;;;;;;8.27;6.03;;;19.80;42.60;;;;;;4941878;29;20502;-79
2023/04/28 08:22:49;;;;;;;7.60;5.60;;;19.80;42.50;;;;;;4951754;29;20531;-79
2023/04/28 08:25:18;;;;;;;7.93;6.33;;;19.90;42.60;;;;;;4939673;29;20451;-79
2023/04/28 08:27:47;;;;;;;9.70;6.73;;;19.90;42.50;;;;;;4947956;29;20932;-81
2023/04/28 08:30:17;;;;;;;9.50;7.50;;;20.00;42.50;;;;;;4950665;29;20452;-78
2023/04/28 08:32:49;;;;;;;9.33;7.63;;;20.00;42.40;;;;;;4949536;29;20487;-80
2023/04/28 08:35:18;;;;;;;9.13;7.23;;;20.10;42.30;;;;;;4958392;29;20506;-79
2023/04/28 08:37:48;;;;;;;9.03;7.57;;;20.10;42.40;;;;;;4960769;28;20516;-80
2023/04/28 08:40:16;;;;;;;10.13;8.20;;;20.20;42.40;;;;;;4956447;29;20452;-79
2023/04/28 08:42:44;;;;;;;10.40;8.17;;;20.20;42.30;;;;;;4957883;29;20545;-78
2023/04/28 08:45:13;;;;;;;11.23;8.57;;;20.30;42.30;;;;;;4945833;29;20471;-80
2023/04/28 08:47:44;;;;;;;11.83;8.93;;;20.30;42.30;;;;;;4945909;29;20515;-80
2023/04/28 08:50:13;;;;;;;12.17;9.00;;;20.30;42.30;;;;;;4955777;28;20451;-78
2023/04/28 08:52:42;;;;;;;12.27;9.33;;;20.30;42.40;;;;;;4947042;29;20542;-80
2023/04/28 08:55:11;;;;;;;11.67;9.47;;;20.30;42.30;;;;;;4957132;29;20451;-80
2023/04/28 08:57:40;;;;;;;13.47;9.33;;;20.30;42.30;;;;;;4948819;29;20474;-81
2023/04/28 09:00:10;;;;;;;13.87;10.97;;;20.40;42.40;;;;;;4953121;29;20616;-80
2023/04/28 09:02:40;;;;;;;13.20;9.57;;;20.40;42.30;;;;;;4955357;28;20510;-80
2023/04/28 09:05:11;;;;;;;13.43;10.90;;;20.50;42.30;;;;;;4948791;29;20463;-80
2023/04/28 09:07:40;;;;;;;14.00;11.20;;;20.50;42.20;;;;;;4949264;29;20559;-79
2023/04/28 09:10:18;;;;;;;14.40;11.03;;;20.50;42.20;;;;;;4942662;29;20448;-81
2023/04/28 09:12:46;;;;;;;13.00;9.97;;;20.60;42.10;;;;;;4948779;29;20447;-77
2023/04/28 09:15:25;;;;;;;15.77;10.70;;;20.60;42.20;;;;;;4939438;29;20448;-78
2023/04/28 09:17:53;;;;;;;15.50;11.20;;;20.60;42.10;;;;;;4944500;29;20479;-79
2023/04/28 09:20:23;;;;;;;14.60;10.60;;;20.70;42.10;;;;;;4946165;28;20460;-79
2023/04/28 09:22:52;;;;;;;15.60;11.30;;;20.80;42.20;;;;;;4938692;29;20459;-80
2023/04/28 09:25:21;;;;;;;13.50;10.90;;;20.90;42.00;;;;;;4945797;29;20451;-79
2023/04/28 09:27:50;;;;;;;15.40;10.73;;;21.00;42.00;;;;;;4944598;28;20533;-79
2023/04/28 09:30:19;;;;;;;14.50;11.30;;;21.10;41.90;;;;;;4943145;29;20433;-80
2023/04/28 09:32:50;;;;;;;12.43;10.37;;;21.20;41.80;;;;;;4944381;29;20461;-80
2023/04/28 09:35:19;;;;;;;16.27;10.80;;;21.30;41.90;;;;;;4942166;29;20459;-80
2023/04/28 09:37:50;;;;;;;14.50;10.83;;;21.40;41.90;;;;;;4950325;29;20475;-77
2023/04/28 09:40:19;;;;;;;13.80;10.60;;;21.60;41.70;;;;;;4943048;28;20472;-80
2023/04/28 09:42:47;;;;;;;10.50;9.10;;;21.70;41.80;;;;;;4947679;29;20455;-80
2023/04/28 09:45:16;;;;;;;13.43;9.80;;;21.70;41.70;;;;;;4949143;29;20542;-80
2023/04/28 09:47:46;;;;;;;12.20;10.27;;;21.80;41.70;;;;;;4945077;29;21032;-79
2023/04/28 09:50:17;;;;;;;10.87;9.60;;;21.90;41.70;;;;;;4943193;29;20443;-79
2023/04/28 09:52:47;;;;;;;14.10;10.00;;;22.00;41.60;;;;;;4940983;29;20488;-76
2023/04/28 09:55:19;;;;;;;14.60;10.63;;;22.10;41.60;;;;;;4944206;29;20461;-78
2023/04/28 09:57:47;;;;;;;14.37;9.87;;;22.00;41.60;;;;;;4949983;29;21012;-79
2023/04/28 10:00:17;;;;;;;11.70;9.63;;;22.00;41.60;;;;;;4942372;29;20447;-76
2023/04/28 10:02:45;;;;;;;12.00;9.63;;;22.00;41.80;;;;;;4942138;28;20459;-78
2023/04/28 10:05:16;;;;;;;10.77;8.90;;;21.90;41.70;;;;;;4943212;29;20456;-80
2023/04/28 10:07:44;;;;;;;16.93;9.80;;;21.90;41.70;;;;;;4946194;29;20502;-78
2023/04/28 10:10:13;;;;;;;11.93;9.00;;;21.90;41.90;;;;;;4952808;29;21245;-78
2023/04/28 10:12:43;;;;;;;13.00;9.60;;;21.90;42.00;;;;;;4944780;28;21169;-79
2023/04/28 10:15:12;;;;;;;14.20;9.57;;;21.90;41.90;;;;;;4942497;29;20451;-78
2023/04/28 10:17:40;;;;;;;14.43;9.30;;;21.90;42.00;;;;;;4946028;29;20503;-75
2023/04/28 10:20:09;;;;;;;13.53;9.50;;;21.90;42.00;;;;;;4950130;29;20463;-78
2023/04/28 10:22:47;;;;;;;15.33;10.23;;;21.90;42.00;;;;;;4943195;29;20578;-78
2023/04/28 10:25:25;;;;;;;12.90;8.87;;;21.90;42.00;;;;;;4942959;29;20465;-80
2023/04/28 10:27:54;;;;;;;12.30;9.80;;;21.90;41.90;;;;;;4949146;29;20444;-79
2023/04/28 10:30:23;;;;;;;13.50;9.50;;;21.80;42.00;;;;;;4944949;29;20456;-79
2023/04/28 10:33:24;;;;;;;11.33;8.80;;;21.80;42.10;;;;;;4945632;29;20454;-78
2023/04/28 10:35:52;;;;;;;12.07;9.60;;;21.70;42.20;;;;;;4949775;29;20480;-78
2023/04/28 10:38:21;;;;;;;13.13;9.13;;;21.70;42.20;;;;;;4952813;29;21101;-78
2023/04/28 10:40:49;;;;;;;12.57;9.70;;;21.60;42.20;;;;;;4941962;29;20519;-77
2023/04/28 10:43:38;;;;;;;16.00;8.87;;;21.60;42.40;;;;;;4953652;29;20466;-78
2023/04/28 10:46:08;;;;;;;13.00;8.70;;;21.60;42.40;;;;;;4940468;29;20519;-77
2023/04/28 10:48:56;;;;;;;10.97;8.40;;;21.70;42.40;;;;;;4948057;29;20451;-78
2023/04/28 10:51:30;;;;;;;12.13;8.90;;;21.70;42.30;;;;;;4945152;29;20569;-77
2023/04/28 10:54:09;;;;;;;10.93;8.63;;;21.70;42.30;;;;;;4941470;29;20452;-78
2023/04/28 10:56:37;;;;;;;12.77;7.80;;;21.70;42.30;;;;;;4949084;29;20458;-78
2023/04/28 10:59:27;;;;;;;11.73;8.73;;;21.70;42.40;;;;;;4946939;29;20487;-78
2023/04/28 11:01:55;;;;;;;13.37;8.80;;;21.60;42.40;;;;;;4948069;29;20478;-78
2023/04/28 11:04:23;;;;;;;14.07;9.20;;;21.60;42.40;;;;;;4941700;29;20475;-77
2023/04/28 11:07:10;;;;;;;12.63;9.00;;;21.60;42.50;;;;;;4948315;29;20818;-77
2023/04/28 11:09:51;;;;;;;10.47;7.80;;;21.70;42.50;;;;;;4946883;28;20527;-77
2023/04/28 11:12:19;;;;;;;8.73;7.83;;;21.70;42.40;;;;;;4946526;28;20573;-78
2023/04/28 11:14:49;;;;;;;13.67;8.30;;;21.70;42.50;;;;;;4953753;28;20487;-77
2023/04/28 11:17:18;;;;;;;13.90;8.30;;;21.80;42.50;;;;;;4942166;29;20453;-78
2023/04/28 11:19:48;;;;;;;10.77;8.50;;;21.80;42.30;;;;;;4942534;29;20480;-76
2023/04/28 11:22:17;;;;;;;9.37;7.80;;;21.90;42.40;;;;;;4937812;29;20472;-78
2023/04/28 11:24:55;;;;;;;12.87;8.13;;;21.90;42.20;;;;;;4949332;29;20471;-78
2023/04/28 11:27:26;;;;;;;10.60;8.23;;;21.90;42.30;;;;;;4946252;29;20431;-79
2023/04/28 11:29:55;;;;;;;10.00;8.30;;;21.90;42.30;;;;;;4948478;28;20450;-78
2023/04/28 11:32:27;;;;;;;9.87;8.30;;;21.90;42.20;;;;;;4950584;29;20482;-78
2023/04/28 11:34:55;;;;;;;10.87;8.80;;;21.90;42.30;;;;;;4953426;29;20540;-76
2023/04/28 11:37:23;;;;;;;10.60;8.30;;;22.00;42.30;;;;;;4948333;29;20448;-77
2023/04/28 11:39:51;;;;;;;10.50;8.40;;;22.00;42.30;;;;;;4955477;29;20479;-77
2023/04/28 11:42:19;;;;;;;11.20;8.33;;;22.00;42.30;;;;;;4947338;29;21029;-78
2023/04/28 11:44:51;;;;;;;10.67;8.23;;;22.10;42.30;;;;;;4946144;29;20448;-78
2023/04/28 11:47:31;;;;;;;12.10;9.10;;;22.10;42.20;;;;;;4945038;29;20506;-77
2023/04/28 11:50:00;;;;;;;9.63;8.20;;;22.20;42.20;;;;;;4947785;28;20463;-77
2023/04/28 11:52:28;;;;;;;10.70;8.10;;;22.30;42.10;;;;;;4940910;29;20472;-79
2023/04/28 11:54:56;;;;;;;11.27;8.30;;;22.40;42.10;;;;;;4936542;29;20444;-78
2023/04/28 11:57:27;;;;;;;8.80;7.90;;;22.50;42.10;;;;;;4944316;28;20447;-77
2023/04/28 12:00:10;;;;;;;9.50;8.00;;;22.60;41.90;;;;;;4951747;29;20481;-79
2023/04/28 12:02:39;;;;;;;11.10;7.83;;;22.60;41.80;;;;;;4947611;28;20480;-76
2023/04/28 12:05:09;;;;;;;11.80;8.03;;;22.60;41.80;;;;;;4940447;29;20463;-78
2023/04/28 12:07:49;;;;;;;11.50;8.17;;;22.50;41.80;;;;;;4946915;29;20514;-78
2023/04/28 12:10:18;;;;;;;10.10;8.00;;;22.50;41.90;;;;;;4950914;29;20436;-77
2023/04/28 12:12:47;;;;;;;10.10;8.37;;;22.50;42.00;;;;;;4938101;29;20467;-78
2023/04/28 12:15:20;;;;;;;10.97;8.00;;;22.50;41.90;;;;;;4949172;29;20503;-79
2023/04/28 12:17:51;;;;;;;11.43;8.40;;;22.50;42.00;;;;;;4938462;29;20455;-78
2023/04/28 12:20:35;;;;;;;9.57;7.80;;;22.50;41.90;;;;;;4942417;29;20478;-78
2023/04/28 12:23:03;;;;;;;8.53;7.53;;;22.50;41.90;;;;;;4948368;29;20470;-78
2023/04/28 12:25:32;;;;;;;8.93;7.70;;;22.60;42.00;;;;;;4944287;29;20458;-79
2023/04/28 12:28:01;;;;;;;8.87;7.60;;;22.60;42.00;;;;;;4947468;29;20984;-78
2023/04/28 12:30:30;;;;;;;9.77;7.83;;;22.60;41.90;;;;;;4946355;29;20422;-79
2023/04/28 12:32:59;;;;;;;8.97;7.90;;;22.60;42.00;;;;;;4943022;29;20458;-79
2023/04/28 12:35:28;;;;;;;11.40;7.43;;;22.70;42.00;;;;;;4950138;29;20469;-79
2023/04/28 12:37:57;;;;;;;10.70;8.17;;;22.70;41.80;;;;;;4949812;29;20472;-77
2023/04/28 12:40:25;;;;;;;8.70;7.37;;;22.70;41.80;;;;;;4944181;28;20478;-78
2023/04/28 12:42:54;;;;;;;9.67;7.87;;;22.80;41.90;;;;;;4943513;29;20472;-79
2023/04/28 12:45:21;;;;;;;10.77;8.00;;;22.80;41.90;;;;;;4947590;29;20467;-80
2023/04/28 12:47:50;;;;;;;10.07;8.20;;;22.80;41.90;;;;;;4945144;29;20455;-79
2023/04/28 12:50:19;;;;;;;8.90;7.90;;;22.80;41.80;;;;;;4940800;29;20440;-79
2023/04/28 12:52:48;;;;;;;10.70;7.90;;;22.90;42.00;;;;;;4942254;29;20817;-78